Latest Weather Observations for Bellambi

IDN60901

Issued at 4:21 pm EDT Monday 21 January 2019 (issued every 10 minutes, with the page automatically refreshed every 10 minutes)

About weather observations | Map of Sydney area stations | Latest observations for Sydney area | Other Formats
Station Details ID: 068228 Name: BELLAMBI AWS Lat: -34.37 Lon: 150.93 Height: 10.0 m
Data from the previous 72 hours. | See also: Recent months at Bellambi
Date/Time
EDT
Temp
°C
App
Temp
°C
Dew
Point
°C
Rel
Hum
%
Delta-T
°C
Wind Press
QNH
hPa
Press
MSL
hPa
Rain since
9am
mm
Dir  Spd
km/h
Gust
km/h
Spd
kts
Gust
kts
21/04:00pm 22.4 24.6 20.5 89 1.2 NNE 9 11 5 6 - - 1.0
21/03:30pm 22.4 24.6 20.3 88 1.4 NNW 9 11 5 6 - - 0.8
21/03:00pm 23.2 24.0 19.8 81 2.2 NNE 15 20 8 11 - - 0.0
21/02:30pm 24.0 26.1 20.1 79 2.5 NNE 9 13 5 7 - - 0.0
21/02:00pm 24.7 26.9 20.4 77 2.8 NNE 9 11 5 6 - - 0.0
21/01:30pm 25.3 27.7 20.8 76 3.0 NE 9 11 5 6 - - 0.0
21/01:00pm 24.7 27.2 21.0 80 2.4 NE 9 11 5 6 - - 0.0
21/12:30pm 24.5 27.1 21.2 82 2.2 E 9 9 5 5 - - 0.0
21/12:00pm 23.8 26.5 20.7 83 2.0 ESE 7 7 4 4 - - 0.0
21/11:30am 23.4 25.5 20.2 82 2.1 E 9 11 5 6 - - 0.0
21/11:00am 23.4 26.0 20.5 84 1.9 ENE 7 9 4 5 - - 0.0
21/10:30am 23.3 26.0 20.2 83 2.0 NNE 6 9 3 5 - - 0.0
21/10:00am 22.6 26.1 20.3 87 1.5 N 2 6 1 3 - - 0.0
21/09:30am 22.5 25.3 20.8 90 1.1 N 7 9 4 5 - - 0.0
21/09:00am 22.1 24.7 20.4 90 1.1 N 7 9 4 5 - - 0.2
21/08:30am 21.9 25.4 20.4 91 1.0 SE 2 7 1 4 - - 0.2
21/08:00am 21.5 23.1 20.0 91 1.0 SSW 11 13 6 7 - - 0.2
21/07:30am 21.4 22.6 19.9 91 1.0 SSW 13 15 7 8 - - 0.2
21/07:00am 21.3 22.1 19.8 91 1.0 SSW 15 19 8 10 - - 0.2
21/06:30am 21.2 22.6 19.5 90 1.1 SSW 11 13 6 7 - - 0.2
21/06:00am 21.2 22.9 19.3 89 1.2 S 9 11 5 6 - - 0.2
21/05:30am 21.4 23.7 19.5 89 1.2 NE 6 9 3 5 - - 0.2
21/05:00am 21.5 23.8 19.4 88 1.3 NNW 6 6 3 3 - - 0.2
21/04:30am 21.4 24.9 19.5 89 1.2 CALM 0 4 0 2 - - 0.2
21/04:00am 21.5 23.9 19.6 89 1.2 NNW 6 7 3 4 - - 0.2
21/03:30am 21.4 24.1 19.5 89 1.2 NW 4 6 2 3 - - 0.0
21/03:00am 21.5 23.3 19.6 89 1.2 NW 9 9 5 5 - - 0.0
21/02:30am 21.6 23.4 19.5 88 1.3 NNW 9 11 5 6 - - 0.0
21/02:00am 21.9 24.2 19.5 86 1.5 NW 6 11 3 6 - - 0.0
21/01:30am 21.9 25.4 19.5 86 1.5 CALM 0 0 0 0 - - 0.0
21/01:00am 21.9 24.1 19.5 86 1.5 WNW 7 9 4 5 - - 0.0
21/12:30am 21.7 23.4 19.3 86 1.5 WNW 9 13 5 7 - - 0.0
21/12:00am 21.6 23.6 19.2 86 1.5 NNW 7 9 4 5 - - 0.0
 
Date/Time
EDT
Temp
°C
App
Temp
°C
Dew
Point
°C
Rel
Hum
%
Delta-T
°C
Wind Press
QNH
hPa
Press
MSL
hPa
Rain since
9am
mm
Dir  Spd
km/h
Gust
km/h
Spd
kts
Gust
kts
20/11:30pm 21.8 24.7 19.0 84 1.8 W 2 6 1 3 - - 0.0
20/11:00pm 22.0 24.2 19.2 84 1.8 SW 6 9 3 5 - - 0.0
20/10:30pm 21.9 23.5 19.1 84 1.8 SW 9 11 5 6 - - 0.0
20/10:00pm 22.0 23.5 19.0 83 1.9 SSW 9 11 5 6 - - 0.0
20/09:30pm 21.9 23.3 18.7 82 2.0 ESE 9 11 5 6 - - 0.0
20/09:00pm 21.7 23.3 18.3 81 2.1 ESE 7 9 4 5 - - 0.0
20/08:30pm 21.6 24.5 18.2 81 2.1 CALM 0 0 0 0 - - 0.0
20/08:00pm 21.5 24.4 18.1 81 2.1 CALM 0 2 0 1 - - 0.0
20/07:30pm 21.6 23.4 18.2 81 2.1 ENE 6 7 3 4 - - 0.0
20/07:00pm 21.7 22.9 18.3 81 2.1 NE 9 11 5 6 - - 0.0
20/06:30pm 21.9 23.1 18.3 80 2.2 NE 9 13 5 7 - - 0.0
20/06:00pm 22.1 23.4 18.5 80 2.3 NNE 9 11 5 6 - - 0.0
20/05:30pm 22.4 23.5 18.8 80 2.3 NNE 11 13 6 7 - - 0.0
20/05:00pm 22.9 23.6 18.9 78 2.5 NNE 13 17 7 9 - - 0.0
20/04:30pm 23.4 24.1 18.9 76 2.9 NNE 13 17 7 9 - - 0.0
20/04:00pm 23.6 24.2 18.7 74 3.1 NNE 13 19 7 10 - - 0.0
20/03:30pm 23.6 24.2 18.7 74 3.1 NNE 13 19 7 10 - - 0.0
20/03:00pm 23.4 24.0 18.5 74 3.1 ENE 13 17 7 9 - - 0.0
20/02:30pm 23.6 23.7 18.3 72 3.3 ENE 15 17 8 9 - - 0.0
20/02:00pm 24.3 25.2 18.5 70 3.7 NE 11 13 6 7 - - 0.0
20/01:30pm 23.5 24.1 17.7 70 3.6 ENE 11 13 6 7 - - 0.0
20/01:00pm 23.6 24.2 18.5 73 3.2 E 13 13 7 7 - - 0.0
20/12:30pm 23.3 24.4 18.0 72 3.3 E 9 11 5 6 - - 0.0
20/12:00pm 23.3 24.9 18.2 73 3.2 ESE 7 9 4 5 - - 0.0
20/11:30am 22.6 24.1 17.7 74 3.0 SE 6 7 3 4 - - 0.0
20/11:00am 22.2 23.6 17.3 74 3.0 SSE 6 7 3 4 - - 0.0
20/10:30am 22.0 23.2 17.4 75 2.8 SSW 7 11 4 6 - - 0.0
20/10:00am 21.9 22.6 17.9 78 2.5 SSW 11 13 6 7 - - 0.0
20/09:30am 21.5 21.7 17.7 79 2.3 S 13 15 7 8 - - 0.0
20/09:00am 21.2 22.2 17.8 81 2.1 SSW 9 11 5 6 - - 0.0
20/08:30am 21.2 22.2 17.8 81 2.1 S 9 11 5 6 - - 0.0
20/08:00am 20.8 22.1 17.6 82 2.0 SW 7 9 4 5 - - 0.0
20/07:30am 20.4 21.2 17.4 83 1.8 SW 9 11 5 6 - - 0.0
20/07:00am 20.1 20.6 17.5 85 1.6 SW 11 13 6 7 - - 0.0
20/06:30am 19.9 20.3 17.3 85 1.6 SW 11 13 6 7 - - 0.0
20/06:00am 19.8 20.6 17.2 85 1.6 SW 9 13 5 7 - - 0.0
20/05:30am 20.1 20.2 17.5 85 1.6 S 13 15 7 8 - - 0.0
20/05:00am 19.8 20.6 17.4 86 1.5 SSW 9 13 5 7 - - 0.0
20/04:30am 19.8 21.0 17.4 86 1.5 SW 7 9 4 5 - - 0.0
20/04:00am 19.8 20.6 17.4 86 1.5 SW 9 9 5 5 - - 0.0
20/03:30am 19.7 21.1 17.3 86 1.5 WSW 6 7 3 4 - - 0.0
20/03:00am 19.7 20.9 17.3 86 1.5 SW 7 9 4 5 - - 0.0
20/02:30am 19.7 20.9 17.3 86 1.5 SW 7 9 4 5 - - 0.0
20/02:00am 19.7 21.0 17.5 87 1.3 WSW 7 9 4 5 - - 0.0
20/01:30am 19.5 20.4 17.5 88 1.2 SW 9 9 5 5 - - 0.0
20/01:00am 19.5 20.4 17.6 89 1.2 SW 9 13 5 7 - - 0.0
20/12:30am 19.4 20.0 17.7 90 1.0 WSW 11 15 6 8 - - 0.0
20/12:00am 19.3 19.5 17.6 90 1.0 WSW 13 17 7 9 - - 0.0
 
Date/Time
EDT
Temp
°C
App
Temp
°C
Dew
Point
°C
Rel
Hum
%
Delta-T
°C
Wind Press
QNH
hPa
Press
MSL
hPa
Rain since
9am
mm
Dir  Spd
km/h
Gust
km/h
Spd
kts
Gust
kts
19/11:30pm 19.3 19.5 17.6 90 1.0 SW 13 17 7 9 - - 0.0
19/11:01pm 19.3 19.9 17.6 90 1.0 SW 11 15 6 8 - - 0.0
19/11:00pm 19.3 19.9 17.6 90 1.0 SW 11 15 6 8 - - 0.0
19/10:30pm 19.4 18.9 17.7 90 1.0 S 17 22 9 12 - - 0.0
19/10:28pm 19.3 18.7 17.6 90 1.0 SSW 17 20 9 11 - - 0.0
19/10:00pm 19.4 18.3 17.7 90 1.0 SSW 20 24 11 13 - - 0.0
19/09:30pm 19.4 17.8 17.4 88 1.2 S 22 28 12 15 - - 0.0
19/09:00pm 20.3 18.3 17.5 84 1.7 SSW 24 28 13 15 - - 0.0
19/08:30pm 20.6 18.4 17.8 84 1.7 S 26 32 14 17 - - 0.0
19/08:00pm 20.3 18.9 17.9 86 1.5 S 22 28 12 15 - - 0.0
19/07:30pm 20.2 18.0 17.8 86 1.5 SSE 26 32 14 17 - - 0.0
19/07:00pm 20.6 18.6 18.2 86 1.5 S 26 33 14 18 - - 0.0
19/06:49pm 20.8 19.5 18.2 85 1.6 SSE 22 30 12 16 - - 0.0
19/06:30pm 21.3 19.2 18.1 82 2.0 S 26 33 14 18 - - 0.0
19/06:00pm 21.3 19.7 18.3 83 1.9 S 24 28 13 15 - - 0.0
19/05:30pm 21.2 19.2 18.4 84 1.7 S 26 32 14 17 - - 0.0
19/05:00pm 21.3 19.4 18.5 84 1.8 S 26 33 14 18 - - 0.0
19/04:30pm 21.5 19.3 18.7 84 1.8 SSE 28 35 15 19 - - 0.0
19/04:00pm 21.6 19.3 18.4 82 2.0 S 28 32 15 17 - - 0.0
19/03:30pm 21.8 19.5 18.4 81 2.1 S 28 32 15 17 - - 0.0
19/03:00pm 21.9 20.0 18.5 81 2.1 S 26 30 14 16 - - 0.0
19/02:30pm 22.0 19.7 18.4 80 2.3 S 28 33 15 18 - - 0.0
19/02:00pm 21.7 18.9 18.1 80 2.2 S 30 33 16 18 - - 0.0
19/01:30pm 21.5 18.4 18.3 82 2.0 S 32 37 17 20 - - 0.0
19/01:00pm 21.7 18.4 18.3 81 2.1 S 33 41 18 22 - - 0.0
19/12:30pm 21.7 18.0 18.3 81 2.1 S 35 44 19 24 - - 0.0
19/12:00pm 21.8 17.8 18.6 82 2.0 S 37 46 20 25 - - 0.0
19/11:30am 22.0 18.1 18.8 82 2.0 S 37 46 20 25 - - 0.0
19/11:00am 22.0 17.1 19.0 83 1.9 S 43 56 23 30 - - 0.0
19/10:30am 22.2 16.3 19.0 82 2.0 S 48 61 26 33 - - 0.0
19/10:00am 22.6 16.3 19.8 84 1.8 S 52 65 28 35 - - 0.0
19/09:38am 23.1 21.8 20.6 86 1.6 S 28 50 15 27 - - 0.0
19/09:30am 23.1 23.3 20.6 86 1.6 S 20 24 11 13 - - 0.0
19/09:00am 23.0 23.0 20.9 88 1.4 S 22 26 12 14 - - 0.0
19/08:30am 22.3 23.9 20.0 87 1.5 S 11 17 6 9 - - 0.0
19/08:00am 22.6 24.1 20.5 88 1.4 SSW 13 15 7 8 - - 0.0
19/07:30am 22.5 25.1 20.4 88 1.4 S 7 13 4 7 - - 0.0
19/07:00am 22.1 23.7 20.0 88 1.3 SSW 11 13 6 7 - - 0.0
19/06:30am 22.0 24.5 19.9 88 1.3 NW 6 7 3 4 - - 0.0
19/06:00am 21.5 24.6 19.4 88 1.3 SSW 2 6 1 3 - - 0.0
19/05:30am 21.9 23.1 20.0 89 1.2 SSW 13 17 7 9 - - 0.0
19/05:00am 21.8 23.3 19.7 88 1.3 SW 11 15 6 8 - - 0.0
19/04:30am 21.8 22.9 19.7 88 1.3 SSW 13 17 7 9 - - 0.0
19/04:00am 22.2 21.0 20.1 88 1.4 S 26 32 14 17 - - 0.0
19/03:30am 22.1 21.8 19.6 86 1.6 SSW 20 24 11 13 - - 0.0
19/03:00am 22.3 23.0 19.7 85 1.7 SSW 15 20 8 11 - - 0.0
19/02:30am 22.0 23.8 19.5 86 1.6 SW 9 13 5 7 - - 0.0
19/02:00am 22.0 23.0 19.4 85 1.7 SSE 13 17 7 9 - - 0.0
19/01:30am 22.1 21.9 19.3 84 1.8 SSE 19 26 10 14 - - 0.0
19/01:00am 22.7 22.5 19.7 83 1.9 SSW 20 28 11 15 - - 0.0
19/12:30am 22.1 22.6 19.3 84 1.8 SSW 15 19 8 10 - - 0.0
19/12:00am 22.2 22.6 19.0 82 2.0 S 15 22 8 12 - - 0.0
 
Date/Time
EDT
Temp
°C
App
Temp
°C
Dew
Point
°C
Rel
Hum
%
Delta-T
°C
Wind Press
QNH
hPa
Press
MSL
hPa
Rain since
9am
mm
Dir  Spd
km/h
Gust
km/h
Spd
kts
Gust
kts
18/11:30pm 22.6 22.8 19.4 82 2.0 S 17 28 9 15 - - 0.0
18/11:00pm 22.8 21.4 19.6 82 2.0 S 26 32 14 17 - - 0.0
18/10:30pm 23.3 22.1 19.2 78 2.6 SSW 24 32 13 17 - - 0.0
18/10:00pm 25.1 25.0 19.5 71 3.6 SW 19 28 10 15 - - 0.0
18/09:30pm 24.9 24.3 20.6 77 2.8 SW 24 33 13 18 - - 0.0
18/09:07pm 23.0 22.2 20.0 83 1.9 SW 24 39 13 21 - - 0.0
18/09:00pm 22.9 19.9 19.9 83 1.9 SSW 35 44 19 24 - - 0.0
18/08:46pm 23.2 23.4 20.2 83 1.9 WSW 19 43 10 23 - - 0.0
18/08:30pm 22.8 24.7 19.8 83 1.9 N 9 15 5 8 - - 0.0
18/08:00pm 22.6 23.8 19.8 84 1.8 NNE 13 17 7 9 - - 0.0
18/07:30pm 22.8 23.9 19.6 82 2.0 NNE 13 17 7 9 - - 0.0
18/07:00pm 23.4 24.2 19.8 80 2.3 N 15 19 8 10 - - 0.0
18/06:30pm 23.9 23.3 19.8 78 2.6 NNE 22 28 12 15 - - 0.0
18/06:00pm 24.6 24.7 20.3 77 2.8 NNE 20 26 11 14 - - 0.0
18/05:30pm 24.5 23.9 20.4 78 2.7 NNE 24 30 13 16 - - 0.0
18/05:00pm 24.7 25.1 20.6 78 2.7 NNE 19 26 10 14 - - 0.0
18/04:30pm 24.8 25.1 20.7 78 2.7 NNE 20 28 11 15 - - 0.0

Latest Capital City Observations: Canberra | Sydney | Melbourne | Brisbane | Adelaide | Perth | Hobart | Darwin

Other Formats:

Comma delimited format used in spreadsheet applications
http://www.bom.gov.au/fwo/IDN60901/IDN60901.94749.axf

JavaScript Object Notation format (JSON) in row-major order
http://www.bom.gov.au/fwo/IDN60901/IDN60901.94749.json